sensor_id;sensor_type;location;lat;lon;timestamp;P1;durP1;ratioP1;P2;durP2;ratioP2
48317;SDS011;34127;47.412;9.730;2022-07-06T00:02:02;5.32;;;3.75;;
48317;SDS011;34127;47.412;9.730;2022-07-06T00:04:28;5.88;;;3.58;;
48317;SDS011;34127;47.412;9.730;2022-07-06T00:06:54;4.82;;;3.55;;
48317;SDS011;34127;47.412;9.730;2022-07-06T00:09:21;4.60;;;3.53;;
48317;SDS011;34127;47.412;9.730;2022-07-06T00:11:47;6.75;;;3.70;;
48317;SDS011;34127;47.412;9.730;2022-07-06T00:14:13;6.45;;;3.72;;
48317;SDS011;34127;47.412;9.730;2022-07-06T00:16:39;6.00;;;3.78;;
48317;SDS011;34127;47.412;9.730;2022-07-06T00:19:05;5.47;;;3.42;;
48317;SDS011;34127;47.412;9.730;2022-07-06T00:21:32;6.18;;;3.67;;
48317;SDS011;34127;47.412;9.730;2022-07-06T00:23:58;6.47;;;3.75;;
48317;SDS011;34127;47.412;9.730;2022-07-06T00:26:24;4.78;;;3.35;;
48317;SDS011;34127;47.412;9.730;2022-07-06T00:28:50;4.78;;;3.30;;
48317;SDS011;34127;47.412;9.730;2022-07-06T00:31:16;4.45;;;3.20;;
48317;SDS011;34127;47.412;9.730;2022-07-06T00:33:43;5.25;;;3.63;;
48317;SDS011;34127;47.412;9.730;2022-07-06T00:36:09;5.93;;;3.40;;
48317;SDS011;34127;47.412;9.730;2022-07-06T00:38:35;5.80;;;3.47;;
48317;SDS011;34127;47.412;9.730;2022-07-06T00:41:01;5.82;;;3.45;;
48317;SDS011;34127;47.412;9.730;2022-07-06T00:43:27;6.15;;;3.65;;
48317;SDS011;34127;47.412;9.730;2022-07-06T00:45:53;4.90;;;3.58;;
48317;SDS011;34127;47.412;9.730;2022-07-06T00:48:20;5.93;;;3.92;;
48317;SDS011;34127;47.412;9.730;2022-07-06T00:50:46;5.10;;;4.00;;
48317;SDS011;34127;47.412;9.730;2022-07-06T00:53:12;7.35;;;3.85;;
48317;SDS011;34127;47.412;9.730;2022-07-06T00:55:39;4.88;;;3.97;;
48317;SDS011;34127;47.412;9.730;2022-07-06T00:58:05;5.78;;;3.97;;
48317;SDS011;34127;47.412;9.730;2022-07-06T01:00:32;7.32;;;3.97;;
48317;SDS011;34127;47.412;9.730;2022-07-06T01:02:58;4.07;;;3.40;;
48317;SDS011;34127;47.412;9.730;2022-07-06T01:05:25;5.78;;;3.42;;
48317;SDS011;34127;47.412;9.730;2022-07-06T01:07:51;4.85;;;3.15;;
48317;SDS011;34127;47.412;9.730;2022-07-06T01:10:18;6.10;;;3.30;;
48317;SDS011;34127;47.412;9.730;2022-07-06T01:12:45;5.43;;;3.38;;
48317;SDS011;34127;47.412;9.730;2022-07-06T01:15:16;4.63;;;3.15;;
48317;SDS011;34127;47.412;9.730;2022-07-06T01:17:43;4.00;;;3.30;;
48317;SDS011;34127;47.412;9.730;2022-07-06T01:20:13;7.57;;;3.75;;
48317;SDS011;34127;47.412;9.730;2022-07-06T01:22:40;5.45;;;3.85;;
48317;SDS011;34127;47.412;9.730;2022-07-06T01:25:06;5.65;;;3.88;;
48317;SDS011;34127;47.412;9.730;2022-07-06T01:27:36;6.90;;;3.60;;
48317;SDS011;34127;47.412;9.730;2022-07-06T01:30:10;5.82;;;3.90;;
48317;SDS011;34127;47.412;9.730;2022-07-06T01:32:37;6.10;;;3.88;;
48317;SDS011;34127;47.412;9.730;2022-07-06T01:35:05;7.50;;;4.18;;
48317;SDS011;34127;47.412;9.730;2022-07-06T01:37:31;4.95;;;3.10;;
48317;SDS011;34127;47.412;9.730;2022-07-06T01:39:58;4.65;;;3.15;;
48317;SDS011;34127;47.412;9.730;2022-07-06T01:42:25;5.45;;;3.38;;
48317;SDS011;34127;47.412;9.730;2022-07-06T01:44:51;4.25;;;3.00;;
48317;SDS011;34127;47.412;9.730;2022-07-06T01:47:17;4.68;;;3.00;;
48317;SDS011;34127;47.412;9.730;2022-07-06T01:49:43;4.38;;;3.08;;
48317;SDS011;34127;47.412;9.730;2022-07-06T01:52:09;4.80;;;2.88;;
48317;SDS011;34127;47.412;9.730;2022-07-06T01:54:35;5.32;;;2.83;;
48317;SDS011;34127;47.412;9.730;2022-07-06T01:57:02;7.68;;;3.15;;
48317;SDS011;34127;47.412;9.730;2022-07-06T01:59:28;5.65;;;2.70;;
48317;SDS011;34127;47.412;9.730;2022-07-06T02:01:54;4.50;;;2.80;;
48317;SDS011;34127;47.412;9.730;2022-07-06T02:04:20;5.45;;;3.13;;
48317;SDS011;34127;47.412;9.730;2022-07-06T02:06:46;3.60;;;2.55;;
48317;SDS011;34127;47.412;9.730;2022-07-06T02:09:13;4.50;;;2.60;;
48317;SDS011;34127;47.412;9.730;2022-07-06T02:11:39;3.97;;;2.53;;
48317;SDS011;34127;47.412;9.730;2022-07-06T02:14:06;4.22;;;2.90;;
48317;SDS011;34127;47.412;9.730;2022-07-06T02:16:32;5.03;;;3.28;;
48317;SDS011;34127;47.412;9.730;2022-07-06T02:18:58;3.75;;;2.60;;
48317;SDS011;34127;47.412;9.730;2022-07-06T02:21:26;3.90;;;2.88;;
48317;SDS011;34127;47.412;9.730;2022-07-06T02:23:53;4.43;;;2.85;;
48317;SDS011;34127;47.412;9.730;2022-07-06T02:26:19;6.00;;;3.05;;
48317;SDS011;34127;47.412;9.730;2022-07-06T02:28:45;4.55;;;2.97;;
48317;SDS011;34127;47.412;9.730;2022-07-06T02:31:12;3.90;;;2.95;;
48317;SDS011;34127;47.412;9.730;2022-07-06T02:33:39;6.85;;;2.97;;
48317;SDS011;34127;47.412;9.730;2022-07-06T02:36:05;5.15;;;3.10;;
48317;SDS011;34127;47.412;9.730;2022-07-06T02:38:31;6.43;;;3.03;;
48317;SDS011;34127;47.412;9.730;2022-07-06T02:40:57;5.05;;;3.13;;
48317;SDS011;34127;47.412;9.730;2022-07-06T02:43:24;4.97;;;3.10;;
48317;SDS011;34127;47.412;9.730;2022-07-06T02:45:50;7.43;;;3.30;;
48317;SDS011;34127;47.412;9.730;2022-07-06T02:48:16;5.40;;;3.05;;
48317;SDS011;34127;47.412;9.730;2022-07-06T02:50:44;4.47;;;3.40;;
48317;SDS011;34127;47.412;9.730;2022-07-06T02:53:10;4.28;;;3.10;;
48317;SDS011;34127;47.412;9.730;2022-07-06T02:55:37;5.68;;;3.20;;
48317;SDS011;34127;47.412;9.730;2022-07-06T02:58:03;4.15;;;2.97;;
48317;SDS011;34127;47.412;9.730;2022-07-06T03:00:29;5.72;;;3.13;;
48317;SDS011;34127;47.412;9.730;2022-07-06T03:02:55;4.57;;;3.00;;
48317;SDS011;34127;47.412;9.730;2022-07-06T03:05:21;7.13;;;3.85;;
48317;SDS011;34127;47.412;9.730;2022-07-06T03:07:47;4.03;;;2.72;;
48317;SDS011;34127;47.412;9.730;2022-07-06T03:10:14;5.18;;;3.55;;
48317;SDS011;34127;47.412;9.730;2022-07-06T03:12:40;5.53;;;3.53;;
48317;SDS011;34127;47.412;9.730;2022-07-06T03:15:06;5.55;;;3.30;;
48317;SDS011;34127;47.412;9.730;2022-07-06T03:17:34;4.70;;;3.40;;
48317;SDS011;34127;47.412;9.730;2022-07-06T03:20:00;4.13;;;3.15;;
48317;SDS011;34127;47.412;9.730;2022-07-06T03:22:27;5.38;;;3.10;;
48317;SDS011;34127;47.412;9.730;2022-07-06T03:24:54;4.38;;;3.42;;
48317;SDS011;34127;47.412;9.730;2022-07-06T03:27:20;5.47;;;3.42;;
48317;SDS011;34127;47.412;9.730;2022-07-06T03:29:46;4.00;;;3.15;;
48317;SDS011;34127;47.412;9.730;2022-07-06T03:32:12;4.07;;;2.90;;
48317;SDS011;34127;47.412;9.730;2022-07-06T03:34:38;5.30;;;3.30;;
48317;SDS011;34127;47.412;9.730;2022-07-06T03:37:04;9.93;;;3.70;;
48317;SDS011;34127;47.412;9.730;2022-07-06T03:39:31;4.53;;;3.42;;
48317;SDS011;34127;47.412;9.730;2022-07-06T03:41:57;7.55;;;3.85;;
48317;SDS011;34127;47.412;9.730;2022-07-06T03:44:24;7.40;;;4.88;;
48317;SDS011;34127;47.412;9.730;2022-07-06T03:46:50;5.97;;;5.00;;
48317;SDS011;34127;47.412;9.730;2022-07-06T03:49:17;8.80;;;6.93;;
48317;SDS011;34127;47.412;9.730;2022-07-06T03:51:44;9.85;;;7.43;;
48317;SDS011;34127;47.412;9.730;2022-07-06T03:54:10;8.85;;;6.20;;
48317;SDS011;34127;47.412;9.730;2022-07-06T03:56:36;10.05;;;6.57;;
48317;SDS011;34127;47.412;9.730;2022-07-06T03:59:03;6.07;;;4.63;;
48317;SDS011;34127;47.412;9.730;2022-07-06T04:01:30;6.18;;;4.30;;
48317;SDS011;34127;47.412;9.730;2022-07-06T04:03:56;6.57;;;3.90;;
48317;SDS011;34127;47.412;9.730;2022-07-06T04:06:22;6.32;;;4.25;;
48317;SDS011;34127;47.412;9.730;2022-07-06T04:08:49;5.70;;;4.13;;
48317;SDS011;34127;47.412;9.730;2022-07-06T04:11:15;7.65;;;3.42;;
48317;SDS011;34127;47.412;9.730;2022-07-06T04:13:41;8.15;;;3.45;;
48317;SDS011;34127;47.412;9.730;2022-07-06T04:16:07;8.38;;;3.42;;
48317;SDS011;34127;47.412;9.730;2022-07-06T04:18:33;6.03;;;3.00;;
48317;SDS011;34127;47.412;9.730;2022-07-06T04:21:00;5.50;;;3.10;;
48317;SDS011;34127;47.412;9.730;2022-07-06T04:23:27;4.93;;;3.17;;
48317;SDS011;34127;47.412;9.730;2022-07-06T04:25:54;5.10;;;3.20;;
48317;SDS011;34127;47.412;9.730;2022-07-06T04:28:20;7.68;;;3.10;;
48317;SDS011;34127;47.412;9.730;2022-07-06T04:30:46;6.93;;;2.85;;
48317;SDS011;34127;47.412;9.730;2022-07-06T04:33:12;3.03;;;2.28;;
48317;SDS011;34127;47.412;9.730;2022-07-06T04:35:38;4.93;;;2.45;;
48317;SDS011;34127;47.412;9.730;2022-07-06T04:38:04;4.25;;;2.10;;
48317;SDS011;34127;47.412;9.730;2022-07-06T04:40:31;3.78;;;2.10;;
48317;SDS011;34127;47.412;9.730;2022-07-06T04:42:57;6.13;;;2.10;;
48317;SDS011;34127;47.412;9.730;2022-07-06T04:45:24;3.90;;;2.00;;
48317;SDS011;34127;47.412;9.730;2022-07-06T04:47:50;3.70;;;1.92;;
48317;SDS011;34127;47.412;9.730;2022-07-06T04:50:16;5.05;;;2.00;;
48317;SDS011;34127;47.412;9.730;2022-07-06T04:52:42;3.22;;;1.90;;
48317;SDS011;34127;47.412;9.730;2022-07-06T04:55:08;5.47;;;2.10;;
48317;SDS011;34127;47.412;9.730;2022-07-06T04:57:35;4.05;;;2.15;;
48317;SDS011;34127;47.412;9.730;2022-07-06T05:00:02;4.38;;;1.98;;
48317;SDS011;34127;47.412;9.730;2022-07-06T05:02:28;3.17;;;1.90;;
48317;SDS011;34127;47.412;9.730;2022-07-06T05:04:54;4.88;;;2.75;;
48317;SDS011;34127;47.412;9.730;2022-07-06T05:07:20;5.38;;;2.90;;
48317;SDS011;34127;47.412;9.730;2022-07-06T05:09:47;6.88;;;3.65;;
48317;SDS011;34127;47.412;9.730;2022-07-06T05:12:13;5.18;;;2.63;;
48317;SDS011;34127;47.412;9.730;2022-07-06T05:14:39;9.18;;;3.30;;
48317;SDS011;34127;47.412;9.730;2022-07-06T05:17:05;5.85;;;3.22;;
48317;SDS011;34127;47.412;9.730;2022-07-06T05:19:31;4.45;;;2.60;;
48317;SDS011;34127;47.412;9.730;2022-07-06T05:21:57;5.22;;;2.42;;
48317;SDS011;34127;47.412;9.730;2022-07-06T05:24:24;6.93;;;2.50;;
48317;SDS011;34127;47.412;9.730;2022-07-06T05:26:50;6.63;;;4.15;;
48317;SDS011;34127;47.412;9.730;2022-07-06T05:29:16;7.68;;;2.90;;
48317;SDS011;34127;47.412;9.730;2022-07-06T05:31:42;5.80;;;2.80;;
48317;SDS011;34127;47.412;9.730;2022-07-06T05:34:08;4.70;;;2.55;;
48317;SDS011;34127;47.412;9.730;2022-07-06T05:36:34;5.07;;;2.50;;
48317;SDS011;34127;47.412;9.730;2022-07-06T05:39:00;4.50;;;2.60;;
48317;SDS011;34127;47.412;9.730;2022-07-06T05:41:27;5.13;;;2.72;;
48317;SDS011;34127;47.412;9.730;2022-07-06T05:43:53;7.88;;;3.22;;
48317;SDS011;34127;47.412;9.730;2022-07-06T05:46:19;6.13;;;2.80;;
48317;SDS011;34127;47.412;9.730;2022-07-06T05:48:45;5.72;;;2.88;;
48317;SDS011;34127;47.412;9.730;2022-07-06T05:51:30;5.33;;;2.60;;
48317;SDS011;34127;47.412;9.730;2022-07-06T05:53:56;6.25;;;2.60;;
48317;SDS011;34127;47.412;9.730;2022-07-06T05:56:22;6.82;;;2.50;;
48317;SDS011;34127;47.412;9.730;2022-07-06T05:58:48;8.18;;;2.92;;
48317;SDS011;34127;47.412;9.730;2022-07-06T06:01:14;4.65;;;2.60;;
48317;SDS011;34127;47.412;9.730;2022-07-06T06:03:40;7.43;;;2.58;;
48317;SDS011;34127;47.412;9.730;2022-07-06T06:06:06;5.13;;;2.60;;
48317;SDS011;34127;47.412;9.730;2022-07-06T06:08:33;4.85;;;2.50;;
48317;SDS011;34127;47.412;9.730;2022-07-06T06:10:59;5.60;;;2.50;;
48317;SDS011;34127;47.412;9.730;2022-07-06T06:13:25;3.72;;;2.50;;
48317;SDS011;34127;47.412;9.730;2022-07-06T06:15:51;4.20;;;2.50;;
48317;SDS011;34127;47.412;9.730;2022-07-06T06:18:17;4.90;;;2.58;;
48317;SDS011;34127;47.412;9.730;2022-07-06T06:20:44;4.95;;;2.65;;
48317;SDS011;34127;47.412;9.730;2022-07-06T06:23:10;7.15;;;2.70;;
48317;SDS011;34127;47.412;9.730;2022-07-06T06:25:37;7.40;;;3.20;;
48317;SDS011;34127;47.412;9.730;2022-07-06T06:28:04;4.80;;;2.72;;
48317;SDS011;34127;47.412;9.730;2022-07-06T06:30:31;5.18;;;2.80;;
48317;SDS011;34127;47.412;9.730;2022-07-06T06:33:14;4.63;;;3.00;;
48317;SDS011;34127;47.412;9.730;2022-07-06T06:35:44;9.18;;;3.10;;
48317;SDS011;34127;47.412;9.730;2022-07-06T06:38:10;8.50;;;3.33;;
48317;SDS011;34127;47.412;9.730;2022-07-06T06:40:37;4.95;;;2.97;;
48317;SDS011;34127;47.412;9.730;2022-07-06T06:43:03;7.35;;;2.92;;
48317;SDS011;34127;47.412;9.730;2022-07-06T06:45:29;6.95;;;4.15;;
48317;SDS011;34127;47.412;9.730;2022-07-06T06:47:56;5.18;;;3.22;;
48317;SDS011;34127;47.412;9.730;2022-07-06T06:50:22;9.07;;;3.63;;
48317;SDS011;34127;47.412;9.730;2022-07-06T06:52:49;4.32;;;3.28;;
48317;SDS011;34127;47.412;9.730;2022-07-06T06:55:15;6.88;;;3.20;;
48317;SDS011;34127;47.412;9.730;2022-07-06T06:57:41;4.10;;;2.70;;
48317;SDS011;34127;47.412;9.730;2022-07-06T07:00:07;7.28;;;2.90;;
48317;SDS011;34127;47.412;9.730;2022-07-06T07:02:34;5.60;;;2.90;;
48317;SDS011;34127;47.412;9.730;2022-07-06T07:05:01;7.25;;;3.30;;
48317;SDS011;34127;47.412;9.730;2022-07-06T07:07:27;4.40;;;2.70;;
48317;SDS011;34127;47.412;9.730;2022-07-06T07:09:53;5.25;;;2.90;;
48317;SDS011;34127;47.412;9.730;2022-07-06T07:12:19;6.80;;;3.00;;
48317;SDS011;34127;47.412;9.730;2022-07-06T07:14:45;5.00;;;2.80;;
48317;SDS011;34127;47.412;9.730;2022-07-06T07:17:12;5.63;;;2.70;;
48317;SDS011;34127;47.412;9.730;2022-07-06T07:19:38;6.10;;;2.80;;
48317;SDS011;34127;47.412;9.730;2022-07-06T07:22:04;7.07;;;3.25;;
48317;SDS011;34127;47.412;9.730;2022-07-06T07:24:31;4.70;;;2.95;;
48317;SDS011;34127;47.412;9.730;2022-07-06T07:26:57;3.75;;;2.95;;
48317;SDS011;34127;47.412;9.730;2022-07-06T07:29:23;4.20;;;2.40;;
48317;SDS011;34127;47.412;9.730;2022-07-06T07:31:49;3.50;;;2.13;;
48317;SDS011;34127;47.412;9.730;2022-07-06T07:34:15;4.82;;;2.10;;
48317;SDS011;34127;47.412;9.730;2022-07-06T07:36:42;6.35;;;2.95;;
48317;SDS011;34127;47.412;9.730;2022-07-06T07:39:08;4.00;;;2.30;;
48317;SDS011;34127;47.412;9.730;2022-07-06T07:41:34;3.50;;;2.40;;
48317;SDS011;34127;47.412;9.730;2022-07-06T07:44:00;5.38;;;2.25;;
48317;SDS011;34127;47.412;9.730;2022-07-06T07:46:27;5.28;;;2.60;;
48317;SDS011;34127;47.412;9.730;2022-07-06T07:48:53;4.80;;;2.70;;
48317;SDS011;34127;47.412;9.730;2022-07-06T07:51:19;6.97;;;2.40;;
48317;SDS011;34127;47.412;9.730;2022-07-06T07:53:45;10.48;;;2.95;;
48317;SDS011;34127;47.412;9.730;2022-07-06T07:56:12;5.82;;;2.33;;
48317;SDS011;34127;47.412;9.730;2022-07-06T07:58:38;4.53;;;2.50;;
48317;SDS011;34127;47.412;9.730;2022-07-06T08:01:04;7.40;;;2.78;;
48317;SDS011;34127;47.412;9.730;2022-07-06T08:03:32;5.63;;;2.45;;
48317;SDS011;34127;47.412;9.730;2022-07-06T08:05:59;3.75;;;2.50;;
48317;SDS011;34127;47.412;9.730;2022-07-06T08:08:25;4.97;;;2.67;;
48317;SDS011;34127;47.412;9.730;2022-07-06T08:10:51;3.80;;;2.60;;
48317;SDS011;34127;47.412;9.730;2022-07-06T08:13:17;4.43;;;2.80;;
48317;SDS011;34127;47.412;9.730;2022-07-06T08:15:43;3.70;;;2.33;;
48317;SDS011;34127;47.412;9.730;2022-07-06T08:18:10;5.40;;;2.65;;
48317;SDS011;34127;47.412;9.730;2022-07-06T08:20:36;4.15;;;2.70;;
48317;SDS011;34127;47.412;9.730;2022-07-06T08:23:03;5.38;;;2.85;;
48317;SDS011;34127;47.412;9.730;2022-07-06T08:25:30;5.40;;;2.60;;
48317;SDS011;34127;47.412;9.730;2022-07-06T08:27:56;5.70;;;3.25;;
48317;SDS011;34127;47.412;9.730;2022-07-06T08:30:22;3.95;;;2.58;;
48317;SDS011;34127;47.412;9.730;2022-07-06T08:32:48;4.05;;;2.60;;
48317;SDS011;34127;47.412;9.730;2022-07-06T08:35:15;6.88;;;2.83;;
48317;SDS011;34127;47.412;9.730;2022-07-06T08:37:41;5.85;;;2.80;;
48317;SDS011;34127;47.412;9.730;2022-07-06T08:40:07;6.07;;;3.03;;
48317;SDS011;34127;47.412;9.730;2022-07-06T08:42:34;5.68;;;2.97;;
48317;SDS011;34127;47.412;9.730;2022-07-06T08:45:05;4.78;;;2.60;;
48317;SDS011;34127;47.412;9.730;2022-07-06T08:47:31;4.82;;;2.85;;
48317;SDS011;34127;47.412;9.730;2022-07-06T08:49:57;5.38;;;2.95;;
48317;SDS011;34127;47.412;9.730;2022-07-06T08:52:24;5.72;;;3.05;;
48317;SDS011;34127;47.412;9.730;2022-07-06T08:54:50;8.43;;;3.28;;
48317;SDS011;34127;47.412;9.730;2022-07-06T08:57:16;5.22;;;2.80;;
48317;SDS011;34127;47.412;9.730;2022-07-06T08:59:43;5.07;;;2.90;;
48317;SDS011;34127;47.412;9.730;2022-07-06T09:02:10;4.65;;;2.83;;
48317;SDS011;34127;47.412;9.730;2022-07-06T09:04:36;5.05;;;3.30;;
48317;SDS011;34127;47.412;9.730;2022-07-06T09:07:03;4.05;;;2.80;;
48317;SDS011;34127;47.412;9.730;2022-07-06T09:09:30;4.82;;;2.83;;
48317;SDS011;34127;47.412;9.730;2022-07-06T09:11:56;4.57;;;2.92;;
48317;SDS011;34127;47.412;9.730;2022-07-06T09:14:23;6.32;;;2.75;;
48317;SDS011;34127;47.412;9.730;2022-07-06T09:17:00;5.88;;;2.70;;
48317;SDS011;34127;47.412;9.730;2022-07-06T09:19:28;4.03;;;3.00;;
48317;SDS011;34127;47.412;9.730;2022-07-06T09:21:54;5.38;;;2.88;;
48317;SDS011;34127;47.412;9.730;2022-07-06T09:24:20;6.40;;;2.85;;
48317;SDS011;34127;47.412;9.730;2022-07-06T09:26:47;6.55;;;2.90;;
48317;SDS011;34127;47.412;9.730;2022-07-06T09:29:14;4.82;;;3.25;;
48317;SDS011;34127;47.412;9.730;2022-07-06T09:31:40;3.90;;;2.80;;
48317;SDS011;34127;47.412;9.730;2022-07-06T09:34:07;6.07;;;2.90;;
48317;SDS011;34127;47.412;9.730;2022-07-06T09:36:39;4.35;;;2.90;;
48317;SDS011;34127;47.412;9.730;2022-07-06T09:41:55;5.15;;;2.63;;
48317;SDS011;34127;47.412;9.730;2022-07-06T09:44:32;4.75;;;2.70;;
48317;SDS011;34127;47.412;9.730;2022-07-06T09:46:59;5.43;;;2.53;;
48317;SDS011;34127;47.412;9.730;2022-07-06T09:49:26;4.15;;;2.45;;
48317;SDS011;34127;47.412;9.730;2022-07-06T09:51:54;4.80;;;2.75;;
48317;SDS011;34127;47.412;9.730;2022-07-06T09:54:20;5.15;;;3.30;;
48317;SDS011;34127;47.412;9.730;2022-07-06T09:56:47;4.97;;;2.67;;
48317;SDS011;34127;47.412;9.730;2022-07-06T09:59:29;5.68;;;2.90;;
48317;SDS011;34127;47.412;9.730;2022-07-06T10:01:57;4.15;;;2.63;;
